Time;durP1;ratioP1;P1;durP2;ratioP2;P2;SDS_P1;SDS_P2;PMS_P1;PMS_P2;Temp;Humidity;BMP_temperature;BMP_pressure;BME280_temperature;BME280_humidity;BME280_pressure;Samples;Min_cycle;Max_cycle;Signal;HPM_P1;HPM_P2
2022/01/23 00:01:41;;;;;;;51.78;21.55;;;;;;;;;;6272077;28;20469;-74
2022/01/23 00:04:42;;;;;;;34.42;15.98;;;;;;;;;;6268690;28;20014;-74
2022/01/23 00:07:44;;;;;;;20.50;7.78;;;;;;;;;;6247810;28;20025;-74
2022/01/23 00:10:44;;;;;;;41.95;15.32;;;;;;;;;;6229269;28;20021;-74
2022/01/23 00:20:15;;;;;;;34.55;13.77;;;;;;;;;;6272175;28;20060;-74
2022/01/23 00:23:30;;;;;;;28.73;9.98;;;;;;;;;;6272666;28;20027;-74
2022/01/23 00:33:19;;;;;;;22.67;9.77;;;;;;;;;;6258778;28;20099;-74
2022/01/23 00:36:20;;;;;;;34.58;12.35;;;;;;;;;;6262705;28;20064;-74
2022/01/23 00:39:20;;;;;;;29.55;13.25;;;;;;;;;;6249484;28;20024;-74
2022/01/23 00:42:21;;;;;;;23.17;10.73;;;;;;;;;;6271960;28;20009;-74
2022/01/23 00:48:34;;;;;;;34.85;13.13;;;;;;;;;;6271278;28;20075;-74
2022/01/23 00:51:37;;;;;;;24.73;9.73;;;;;;;;;;6271939;28;20067;-74
2022/01/23 00:54:37;;;;;;;28.65;10.82;;;;;;;;;;6271305;28;20112;-74
2022/01/23 00:57:37;;;;;;;29.88;11.32;;;;;;;;;;6252773;28;20032;-73
2022/01/23 01:00:39;;;;;;;22.88;12.00;;;;;;;;;;6271309;28;20159;-73
2022/01/23 01:03:39;;;;;;;31.52;11.15;;;;;;;;;;6271699;28;20067;-73
2022/01/23 01:06:39;;;;;;;30.60;12.45;;;;;;;;;;6251629;28;20029;-73
2022/01/23 01:09:40;;;;;;;26.93;12.23;;;;;;;;;;6246644;28;20033;-73
2022/01/23 01:12:44;;;;;;;32.73;13.13;;;;;;;;;;6246428;28;20491;-73
2022/01/23 01:32:06;;;;;;;30.45;10.15;;;;;;;;;;6270289;28;20028;-73
2022/01/23 01:35:18;;;;;;;29.63;12.30;;;;;;;;;;6269457;28;20027;-73
2022/01/23 01:38:18;;;;;;;;;;;;;;;;;;6270077;28;20017;-72
2022/01/23 01:41:19;;;;;;;23.55;7.68;;;;;;;;;;6251942;28;19912;-72
2022/01/23 01:44:21;;;;;;;9.47;5.17;;;;;;;;;;6251377;28;20013;-72
2022/01/23 01:47:21;;;;;;;9.65;5.05;;;;;;;;;;6251506;28;20104;-72
2022/01/23 01:50:22;;;;;;;25.33;9.45;;;;;;;;;;6251316;28;20021;-72
2022/01/23 01:53:22;;;;;;;26.52;11.77;;;;;;;;;;6252064;28;20043;-72
2022/01/23 01:56:23;;;;;;;31.75;11.07;;;;;;;;;;6253677;28;20104;-72
2022/01/23 01:59:45;;;;;;;34.53;13.35;;;;;;;;;;6248761;28;20431;-72
2022/01/23 02:09:32;;;;;;;32.63;14.02;;;;;;;;;;6245175;28;20428;-72
2022/01/23 02:51:58;;;;;;;32.95;11.77;;;;;;;;;;6214112;28;20044;-72
2022/01/23 02:55:10;;;;;;;36.20;15.13;;;;;;;;;;6268462;28;20098;-72
2022/01/23 02:58:12;;;;;;;;;;;;;;;;;;6268391;28;20071;-73
2022/01/23 03:01:16;;;;;;;36.85;17.45;;;;;;;;;;6267734;28;19947;-72
2022/01/23 03:04:21;;;;;;;38.28;17.33;;;;;;;;;;6265533;28;20099;-72
2022/01/23 03:11:05;;;;;;;31.35;13.77;;;;;;;;;;6143059;29;20043;-72
2022/01/23 03:27:54;;;;;;;25.88;11.93;;;;;;;;;;6230401;28;20092;-72
2022/01/23 03:31:04;;;;;;;21.05;10.43;;;;;;;;;;6267817;28;20044;-72
2022/01/23 03:34:05;;;;;;;32.80;14.15;;;;;;;;;;6268410;28;20482;-72
2022/01/23 03:37:06;;;;;;;26.90;11.02;;;;;;;;;;6248653;28;20021;-72
2022/01/23 03:40:06;;;;;;;29.30;10.45;;;;;;;;;;6267782;28;20021;-72
2022/01/23 03:43:12;;;;;;;27.42;11.05;;;;;;;;;;6268222;28;20106;-72
2022/01/23 03:49:31;;;;;;;30.83;14.90;;;;;;;;;;6268351;28;20119;-72
2022/01/23 03:52:31;;;;;;;31.98;13.10;;;;;;;;;;6268821;28;20035;-72
2022/01/23 03:55:32;;;;;;;38.75;20.75;;;;;;;;;;6267886;28;20369;-72
2022/01/23 03:58:33;;;;;;;36.30;17.27;;;;;;;;;;6254563;28;20032;-72
2022/01/23 04:01:33;;;;;;;36.72;18.88;;;;;;;;;;6265117;28;20024;-72
2022/01/23 04:07:35;;;;;;;47.30;18.40;;;;;;;;;;6243362;28;20083;-72
2022/01/23 04:10:36;;;;;;;;;;;;;;;;;;6242853;28;20049;-72
2022/01/23 04:13:48;;;;;;;50.42;21.35;;;;;;;;;;6247691;28;20303;-72
2022/01/23 04:59:45;;;;;;;93.78;36.38;;;;;;;;;;6270651;28;20028;-71
2022/01/23 05:06:06;;;;;;;67.93;27.58;;;;;;;;;;6255796;28;20508;-71
2022/01/23 05:09:08;;;;;;;97.03;41.67;;;;;;;;;;6245554;28;20044;-71
2022/01/23 05:12:10;;;;;;;99.25;39.67;;;;;;;;;;6245798;28;20029;-71
2022/01/23 05:15:12;;;;;;;85.45;39.83;;;;;;;;;;6263496;28;20021;-72
2022/01/23 05:18:12;;;;;;;57.67;24.50;;;;;;;;;;6270192;28;20025;-71
2022/01/23 05:24:20;;;;;;;35.50;15.02;;;;;;;;;;6270050;28;20062;-71
2022/01/23 05:27:23;;;;;;;38.70;18.00;;;;;;;;;;6270376;28;20098;-71
2022/01/23 05:30:24;;;;;;;37.92;16.65;;;;;;;;;;6269861;28;20037;-71
2022/01/23 05:33:24;;;;;;;37.97;14.63;;;;;;;;;;6251998;28;20495;-71
2022/01/23 05:36:24;;;;;;;35.45;15.48;;;;;;;;;;6268048;28;20095;-71
2022/01/23 05:39:27;;;;;;;30.87;14.40;;;;;;;;;;6269677;28;20388;-71
2022/01/23 05:42:27;;;;;;;31.88;13.50;;;;;;;;;;6269786;28;20021;-71
2022/01/23 05:45:27;;;;;;;21.63;8.18;;;;;;;;;;6270181;28;20060;-71
2022/01/23 05:48:28;;;;;;;36.65;16.77;;;;;;;;;;6252364;28;20037;-71
2022/01/23 05:51:28;;;;;;;42.95;18.27;;;;;;;;;;6269741;28;20024;-71
2022/01/23 05:54:28;;;;;;;26.50;13.40;;;;;;;;;;6269625;28;20491;-71
2022/01/23 05:57:28;;;;;;;25.80;12.60;;;;;;;;;;6269792;28;20082;-71
2022/01/23 06:00:29;;;;;;;32.10;15.30;;;;;;;;;;6269487;28;20044;-71
2022/01/23 06:03:29;;;;;;;36.40;10.73;;;;;;;;;;6270409;28;20028;-71
2022/01/23 06:06:29;;;;;;;43.88;18.83;;;;;;;;;;6251303;28;20477;-71
2022/01/23 06:09:30;;;;;;;38.37;18.03;;;;;;;;;;6244675;28;20029;-71
2022/01/23 06:12:30;;;;;;;37.80;20.17;;;;;;;;;;6244831;28;20148;-71
2022/01/23 06:15:30;;;;;;;16.60;7.45;;;;;;;;;;6266105;28;20029;-71
2022/01/23 06:18:32;;;;;;;26.45;10.60;;;;;;;;;;6269710;28;20448;-71
2022/01/23 06:21:32;;;;;;;32.40;13.90;;;;;;;;;;6268848;28;20029;-71
2022/01/23 06:24:32;;;;;;;42.53;18.10;;;;;;;;;;6269797;28;20028;-71
2022/01/23 06:27:33;;;;;;;23.57;8.90;;;;;;;;;;6264978;28;20063;-71
2022/01/23 06:30:34;;;;;;;46.03;20.48;;;;;;;;;;6257486;28;20086;-71
2022/01/23 06:33:35;;;;;;;29.33;15.45;;;;;;;;;;6260445;28;20033;-71
2022/01/23 06:36:36;;;;;;;33.83;18.88;;;;;;;;;;6262104;28;20107;-71
2022/01/23 06:39:36;;;;;;;44.92;22.60;;;;;;;;;;6258496;28;20388;-71
2022/01/23 06:42:36;;;;;;;108.50;52.83;;;;;;;;;;6268457;28;20027;-71
2022/01/23 06:45:36;;;;;;;124.40;60.17;;;;;;;;;;6268541;28;20017;-71
2022/01/23 06:48:37;;;;;;;70.22;26.20;;;;;;;;;;6267417;28;20024;-71
2022/01/23 06:51:37;;;;;;;30.60;14.27;;;;;;;;;;6267998;28;20035;-72
2022/01/23 06:54:37;;;;;;;45.60;20.75;;;;;;;;;;6267264;28;20112;-70
2022/01/23 06:57:38;;;;;;;11.63;5.15;;;;;;;;;;6267613;28;20044;-70
2022/01/23 07:00:38;;;;;;;70.03;46.20;;;;;;;;;;6251783;28;20017;-70
2022/01/23 07:03:38;;;;;;;70.25;40.72;;;;;;;;;;6261181;28;20039;-70
2022/01/23 07:06:39;;;;;;;68.73;38.97;;;;;;;;;;6252537;28;20063;-70
2022/01/23 07:09:39;;;;;;;50.77;27.47;;;;;;;;;;6267413;28;20443;-71
2022/01/23 07:12:39;;;;;;;69.90;31.77;;;;;;;;;;6267425;28;20016;-73
2022/01/23 07:15:39;;;;;;;73.40;37.47;;;;;;;;;;6245795;28;20017;-71
2022/01/23 07:18:40;;;;;;;54.67;26.63;;;;;;;;;;6242738;28;20104;-71
2022/01/23 07:21:40;;;;;;;48.13;22.38;;;;;;;;;;6242549;28;20665;-71
2022/01/23 07:24:40;;;;;;;50.55;20.08;;;;;;;;;;6242501;28;20018;-71
2022/01/23 07:27:49;;;;;;;28.52;11.73;;;;;;;;;;6242607;28;20092;-70
2022/01/23 07:30:56;;;;;;;36.53;18.88;;;;;;;;;;6240347;28;20368;-71
2022/01/23 07:33:57;;;;;;;41.50;19.88;;;;;;;;;;6267085;28;20491;-71
2022/01/23 07:36:58;;;;;;;38.38;15.43;;;;;;;;;;6265364;28;20044;-71
2022/01/23 07:39:58;;;;;;;43.40;17.42;;;;;;;;;;6266949;28;20031;-71
2022/01/23 07:42:58;;;;;;;69.40;36.03;;;;;;;;;;6267399;28;20419;-71
2022/01/23 07:45:59;;;;;;;39.25;20.05;;;;;;;;;;6267122;28;20033;-71
2022/01/23 07:48:59;;;;;;;39.38;20.33;;;;;;;;;;6266665;28;20029;-71
2022/01/23 07:52:01;;;;;;;53.20;29.77;;;;;;;;;;6265358;28;20025;-71
2022/01/23 07:55:03;;;;;;;59.63;28.27;;;;;;;;;;6264966;28;20159;-71
2022/01/23 07:58:10;;;;;;;;;;;;;;;;;;6268943;28;20431;-71
2022/01/23 08:01:11;;;;;;;21.67;12.55;;;;;;;;;;6240667;28;19970;-71
2022/01/23 08:04:11;;;;;;;30.52;17.48;;;;;;;;;;6264247;28;20021;-71
2022/01/23 08:07:22;;;;;;;66.82;38.15;;;;;;;;;;6244387;28;20020;-71
2022/01/23 08:10:22;;;;;;;60.08;30.63;;;;;;;;;;6227231;28;20067;-71
2022/01/23 08:13:22;;;;;;;71.68;30.95;;;;;;;;;;6248003;28;20520;-71
2022/01/23 08:16:22;;;;;;;47.45;22.63;;;;;;;;;;6270094;28;20079;-71
2022/01/23 08:19:23;;;;;;;68.57;33.00;;;;;;;;;;6269878;28;20104;-71
2022/01/23 08:22:24;;;;;;;57.40;30.92;;;;;;;;;;6270255;28;20472;-71
2022/01/23 08:25:24;;;;;;;78.55;33.92;;;;;;;;;;6248656;28;20122;-71
2022/01/23 08:28:25;;;;;;;54.25;21.58;;;;;;;;;;6261809;28;20056;-71
2022/01/23 08:31:25;;;;;;;48.78;21.13;;;;;;;;;;6261368;28;20029;-71
2022/01/23 08:34:25;;;;;;;71.93;28.08;;;;;;;;;;6269805;28;20420;-71
2022/01/23 08:37:25;;;;;;;68.28;33.17;;;;;;;;;;6267842;28;20021;-71
2022/01/23 08:40:47;;;;;;;71.13;29.75;;;;;;;;;;6269626;28;20088;-71
2022/01/23 08:43:48;;;;;;;51.70;25.20;;;;;;;;;;6269942;28;20438;-71
2022/01/23 08:46:49;;;;;;;74.78;35.60;;;;;;;;;;6269787;28;20033;-71
2022/01/23 08:49:50;;;;;;;49.65;22.77;;;;;;;;;;6251120;28;20024;-71
2022/01/23 08:52:50;;;;;;;53.65;20.85;;;;;;;;;;6269414;28;20037;-71
2022/01/23 08:55:50;;;;;;;40.40;20.55;;;;;;;;;;6269843;28;20555;-71
2022/01/23 08:58:51;;;;;;;41.13;19.17;;;;;;;;;;6269420;28;20029;-71
2022/01/23 09:01:51;;;;;;;39.38;18.90;;;;;;;;;;6269035;28;20414;-71
2022/01/23 09:04:52;;;;;;;40.70;20.27;;;;;;;;;;6263902;28;20368;-71
2022/01/23 09:07:53;;;;;;;47.72;21.05;;;;;;;;;;6246630;28;20105;-71
2022/01/23 09:10:55;;;;;;;44.83;20.15;;;;;;;;;;6259074;28;20463;-71
2022/01/23 09:17:05;;;;;;;47.58;22.05;;;;;;;;;;6243079;28;20037;-72
2022/01/23 09:20:05;;;;;;;49.90;23.75;;;;;;;;;;6253049;28;20095;-72
2022/01/23 09:23:06;;;;;;;42.72;22.13;;;;;;;;;;6256728;28;20420;-72
2022/01/23 09:26:14;;;;;;;45.53;24.77;;;;;;;;;;6259678;28;20078;-72
2022/01/23 09:29:16;;;;;;;46.67;22.05;;;;;;;;;;6234815;28;20107;-72
2022/01/23 09:32:16;;;;;;;;;;;;;;;;;;6240707;28;20469;-73
2022/01/23 09:35:17;;;;;;;40.20;19.17;;;;;;;;;;6240956;28;20349;-73
2022/01/23 09:38:17;;;;;;;39.33;20.63;;;;;;;;;;6237640;28;20295;-73
2022/01/23 09:41:20;;;;;;;65.22;32.08;;;;;;;;;;6228193;28;20022;-73
2022/01/23 09:44:20;;;;;;;61.67;26.52;;;;;;;;;;6225243;28;20018;-73
2022/01/23 09:47:21;;;;;;;78.25;38.28;;;;;;;;;;6244434;28;20017;-73
2022/01/23 09:50:21;;;;;;;45.78;23.00;;;;;;;;;;6244822;28;20025;-73
2022/01/23 09:53:23;;;;;;;115.47;43.47;;;;;;;;;;6223091;28;20112;-73
2022/01/23 09:56:29;;;;;;;47.92;19.80;;;;;;;;;;6238568;28;20025;-73
2022/01/23 09:59:30;;;;;;;103.53;53.20;;;;;;;;;;6242924;28;20029;-71
2022/01/23 10:02:30;;;;;;;57.13;26.13;;;;;;;;;;6244516;28;20044;-71
2022/01/23 10:05:30;;;;;;;66.32;28.58;;;;;;;;;;6234488;28;20045;-71
2022/01/23 10:08:31;;;;;;;60.53;24.92;;;;;;;;;;6233773;28;20025;-71
2022/01/23 10:11:36;;;;;;;46.22;22.75;;;;;;;;;;6243178;28;20032;-71
2022/01/23 10:14:36;;;;;;;82.32;41.58;;;;;;;;;;6236189;28;20050;-72
2022/01/23 10:17:37;;;;;;;40.30;20.63;;;;;;;;;;6237022;28;20212;-74
2022/01/23 10:20:37;;;;;;;66.68;33.00;;;;;;;;;;6243008;28;20061;-74
2022/01/23 10:23:37;;;;;;;31.77;17.30;;;;;;;;;;6244113;28;20026;-74
2022/01/23 10:26:47;;;;;;;69.75;36.13;;;;;;;;;;6242484;28;20120;-74
2022/01/23 10:29:48;;;;;;;71.00;35.50;;;;;;;;;;6241899;28;20064;-74
2022/01/23 10:33:03;;;;;;;54.53;27.30;;;;;;;;;;6243366;28;20476;-74
2022/01/23 10:36:11;;;;;;;40.00;18.17;;;;;;;;;;6235668;28;20393;-74
2022/01/23 10:39:18;;;;;;;37.40;18.58;;;;;;;;;;6243340;28;20349;-74
2022/01/23 10:49:00;;;;;;;64.10;27.25;;;;;;;;;;6243938;28;20064;-72
2022/01/23 10:52:00;;;;;;;50.28;20.80;;;;;;;;;;6235148;28;20087;-72
2022/01/23 10:55:01;;;;;;;49.60;21.65;;;;;;;;;;6238855;28;20033;-72
2022/01/23 10:58:03;;;;;;;36.33;19.63;;;;;;;;;;6234977;28;20048;-72
2022/01/23 11:01:06;;;;;;;41.17;17.92;;;;;;;;;;6238430;28;20052;-72
2022/01/23 11:04:13;;;;;;;40.72;20.02;;;;;;;;;;6236978;28;20021;-74
2022/01/23 11:07:13;;;;;;;36.03;16.73;;;;;;;;;;6240753;28;20025;-75
2022/01/23 11:10:18;;;;;;;32.42;15.85;;;;;;;;;;6233968;28;20061;-75
2022/01/23 11:20:06;;;;;;;30.90;15.77;;;;;;;;;;6233424;28;20534;-75
2022/01/23 11:23:17;;;;;;;33.60;17.70;;;;;;;;;;6236897;28;20017;-76
2022/01/23 11:26:17;;;;;;;38.28;16.85;;;;;;;;;;6226692;28;20017;-76
2022/01/23 11:29:18;;;;;;;57.47;28.20;;;;;;;;;;6254188;28;20059;-76
2022/01/23 11:32:20;;;;;;;33.53;15.75;;;;;;;;;;6247650;28;20503;-76
2022/01/23 11:35:24;;;;;;;32.72;16.45;;;;;;;;;;6265611;28;20475;-76
2022/01/23 11:38:25;;;;;;;34.97;17.38;;;;;;;;;;6253342;28;20074;-76
2022/01/23 11:54:37;;;;;;;36.17;16.10;;;;;;;;;;6246332;28;20039;-77
2022/01/23 11:57:40;;;;;;;37.80;17.88;;;;;;;;;;6246281;28;20013;-77
2022/01/23 12:00:42;;;;;;;46.90;20.15;;;;;;;;;;6261668;28;20017;-77
2022/01/23 12:04:01;;;;;;;35.80;18.52;;;;;;;;;;6272051;28;20017;-77
2022/01/23 12:07:11;;;;;;;37.97;16.88;;;;;;;;;;6253156;28;20032;-77
2022/01/23 12:10:14;;;;;;;34.85;18.27;;;;;;;;;;6275963;28;20025;-77
2022/01/23 12:13:33;;;;;;;34.40;17.20;;;;;;;;;;6276360;28;20430;-77
2022/01/23 12:16:52;;;;;;;30.13;14.07;;;;;;;;;;6295366;28;20371;-77
2022/01/23 12:19:54;;;;;;;27.88;14.43;;;;;;;;;;6269854;28;20104;-77
2022/01/23 12:22:55;;;;;;;30.15;16.33;;;;;;;;;;6239443;28;20021;-77
2022/01/23 12:25:56;;;;;;;33.33;15.75;;;;;;;;;;6270017;28;20055;-78
2022/01/23 12:29:09;;;;;;;45.80;22.02;;;;;;;;;;6269999;28;20530;-77
2022/01/23 12:32:17;;;;;;;45.60;24.52;;;;;;;;;;6250707;28;20025;-77
2022/01/23 12:35:19;;;;;;;34.13;16.88;;;;;;;;;;6257299;28;20123;-77
2022/01/23 12:38:26;;;;;;;32.67;16.50;;;;;;;;;;6261840;28;20033;-77
2022/01/23 12:41:31;;;;;;;48.88;21.73;;;;;;;;;;6259627;28;20464;-77
2022/01/23 12:44:33;;;;;;;36.33;18.10;;;;;;;;;;6251706;28;20467;-77
2022/01/23 12:47:33;;;;;;;33.88;16.55;;;;;;;;;;6269870;28;20028;-77
2022/01/23 12:50:46;;;;;;;34.58;16.02;;;;;;;;;;6274783;28;20388;-77
2022/01/23 12:53:46;;;;;;;;;;;;;;;;;;6271750;28;20025;-77
2022/01/23 12:56:48;;;;;;;41.55;19.35;;;;;;;;;;6253933;28;19963;-76
2022/01/23 12:59:57;;;;;;;55.45;22.25;;;;;;;;;;6251752;28;20079;-76
2022/01/23 13:02:57;;;;;;;44.83;17.88;;;;;;;;;;6268435;28;20120;-76
2022/01/23 13:05:57;;;;;;;40.30;16.60;;;;;;;;;;6254966;28;20025;-76
2022/01/23 13:09:23;;;;;;;33.28;15.27;;;;;;;;;;6243871;28;20092;-75
2022/01/23 13:19:15;;;;;;;56.17;24.25;;;;;;;;;;6269275;28;20072;-75
2022/01/23 13:32:16;;;;;;;46.30;22.48;;;;;;;;;;6267992;28;20398;-75
2022/01/23 13:35:17;;;;;;;37.40;15.33;;;;;;;;;;6248972;28;20126;-75
2022/01/23 13:38:19;;;;;;;28.65;14.57;;;;;;;;;;6254402;28;20032;-75
2022/01/23 13:41:26;;;;;;;27.48;15.52;;;;;;;;;;6265933;28;20079;-75
2022/01/23 13:48:04;;;;;;;41.22;17.90;;;;;;;;;;6260482;28;20116;-75
2022/01/23 13:57:53;;;;;;;28.85;13.32;;;;;;;;;;6262994;28;20052;-75
2022/01/23 14:00:58;;;;;;;29.60;12.35;;;;;;;;;;6249568;28;20056;-75
2022/01/23 14:03:59;;;;;;;42.20;17.27;;;;;;;;;;6268447;28;20473;-75
2022/01/23 14:06:59;;;;;;;28.42;14.55;;;;;;;;;;6228384;28;20032;-75
2022/01/23 14:10:10;;;;;;;42.03;19.85;;;;;;;;;;6245634;28;20021;-75
2022/01/23 14:13:14;;;;;;;36.28;17.98;;;;;;;;;;6267548;28;20025;-75
2022/01/23 14:16:14;;;;;;;25.33;11.75;;;;;;;;;;6225895;28;20025;-75
2022/01/23 14:19:19;;;;;;;28.95;13.80;;;;;;;;;;6246283;28;20025;-75
2022/01/23 14:22:25;;;;;;;27.75;13.48;;;;;;;;;;6259224;28;20022;-75
2022/01/23 14:25:27;;;;;;;31.20;15.23;;;;;;;;;;6264755;28;20021;-75
2022/01/23 14:28:34;;;;;;;27.98;13.15;;;;;;;;;;6229498;28;20053;-75
2022/01/23 14:31:37;;;;;;;36.05;16.95;;;;;;;;;;6265568;28;20489;-75
2022/01/23 14:34:38;;;;;;;36.97;16.48;;;;;;;;;;6267398;28;20570;-76
2022/01/23 14:37:39;;;;;;;35.95;15.65;;;;;;;;;;6232551;28;20138;-75
2022/01/23 14:40:51;;;;;;;40.72;19.48;;;;;;;;;;6264745;28;20028;-75
2022/01/23 14:43:52;;;;;;;35.22;16.73;;;;;;;;;;6263031;28;20062;-75
2022/01/23 14:46:57;;;;;;;34.60;17.42;;;;;;;;;;6263158;28;20430;-74
2022/01/23 14:49:59;;;;;;;39.22;16.33;;;;;;;;;;6248624;28;20029;-75
2022/01/23 14:53:05;;;;;;;40.80;14.20;;;;;;;;;;6252087;28;20031;-75
2022/01/23 14:56:06;;;;;;;28.13;15.05;;;;;;;;;;6256203;28;20082;-75
2022/01/23 14:59:08;;;;;;;45.90;18.08;;;;;;;;;;6245937;28;20071;-75
2022/01/23 15:02:08;;;;;;;34.45;16.83;;;;;;;;;;6256689;28;20504;-75
2022/01/23 15:05:09;;;;;;;32.45;14.90;;;;;;;;;;6254425;28;20029;-75
2022/01/23 15:08:10;;;;;;;41.03;16.75;;;;;;;;;;6241061;28;20595;-75
2022/01/23 15:11:10;;;;;;;39.88;18.00;;;;;;;;;;6265779;28;20486;-75
2022/01/23 15:14:11;;;;;;;30.00;15.02;;;;;;;;;;6251546;28;20047;-75
2022/01/23 15:17:11;;;;;;;38.83;16.25;;;;;;;;;;6245028;28;20124;-75
2022/01/23 15:20:12;;;;;;;50.65;20.90;;;;;;;;;;6255549;28;20504;-75
2022/01/23 15:23:13;;;;;;;45.15;19.38;;;;;;;;;;6242902;28;20020;-75
2022/01/23 15:26:14;;;;;;;49.53;20.08;;;;;;;;;;6246432;28;20508;-75
2022/01/23 15:29:15;;;;;;;48.00;22.23;;;;;;;;;;6262688;28;20041;-75
2022/01/23 15:32:15;;;;;;;46.13;20.27;;;;;;;;;;6244222;28;20136;-75
2022/01/23 15:35:15;;;;;;;44.22;22.98;;;;;;;;;;6257171;28;20028;-75
2022/01/23 15:38:17;;;;;;;46.35;23.48;;;;;;;;;;6262256;28;20035;-75
2022/01/23 15:41:17;;;;;;;50.72;20.90;;;;;;;;;;6262524;28;20059;-75
2022/01/23 15:44:17;;;;;;;62.53;26.83;;;;;;;;;;6243422;28;20013;-75
2022/01/23 15:47:17;;;;;;;50.25;23.55;;;;;;;;;;6263280;28;20045;-75
2022/01/23 15:50:19;;;;;;;51.47;25.58;;;;;;;;;;6237222;28;20438;-75
2022/01/23 15:53:19;;;;;;;44.35;23.38;;;;;;;;;;6246715;28;20358;-75
2022/01/23 15:56:20;;;;;;;46.83;21.75;;;;;;;;;;6256580;28;20014;-75
2022/01/23 15:59:20;;;;;;;55.75;28.17;;;;;;;;;;6250405;28;20045;-75
2022/01/23 16:02:20;;;;;;;51.72;27.52;;;;;;;;;;6247416;28;20021;-75
2022/01/23 16:05:21;;;;;;;65.55;30.38;;;;;;;;;;6247361;28;20017;-75
2022/01/23 16:08:21;;;;;;;69.32;30.48;;;;;;;;;;6254386;28;20512;-75
2022/01/23 16:11:21;;;;;;;65.78;32.28;;;;;;;;;;6252568;28;20029;-75
2022/01/23 16:14:22;;;;;;;74.82;30.95;;;;;;;;;;6258753;28;20017;-75
2022/01/23 16:17:22;;;;;;;57.25;27.30;;;;;;;;;;6262052;28;20021;-75
2022/01/23 16:20:23;;;;;;;71.72;30.13;;;;;;;;;;6261416;28;20096;-74
2022/01/23 16:23:23;;;;;;;60.33;28.40;;;;;;;;;;6242964;28;20025;-74
2022/01/23 16:26:26;;;;;;;59.85;29.38;;;;;;;;;;6257027;28;20166;-74
2022/01/23 16:29:27;;;;;;;57.58;27.77;;;;;;;;;;6266992;28;20493;-75
2022/01/23 16:32:28;;;;;;;54.42;27.60;;;;;;;;;;6261667;28;20026;-75
2022/01/23 16:35:28;;;;;;;61.45;25.92;;;;;;;;;;6269772;28;20026;-75
2022/01/23 16:38:28;;;;;;;72.20;34.95;;;;;;;;;;6270777;28;20460;-75
2022/01/23 16:41:29;;;;;;;87.18;36.80;;;;;;;;;;6252415;28;20067;-75
2022/01/23 16:44:29;;;;;;;62.88;30.80;;;;;;;;;;6259392;28;20029;-75
2022/01/23 16:47:30;;;;;;;66.90;36.28;;;;;;;;;;6262513;28;20070;-75
2022/01/23 16:50:30;;;;;;;69.47;33.45;;;;;;;;;;6241285;28;20017;-75
2022/01/23 16:53:31;;;;;;;67.68;29.27;;;;;;;;;;6257865;28;20050;-75
2022/01/23 16:56:31;;;;;;;61.90;28.40;;;;;;;;;;6238836;28;20029;-75
2022/01/23 16:59:31;;;;;;;65.82;28.92;;;;;;;;;;6234527;28;20049;-75
2022/01/23 17:02:32;;;;;;;56.15;26.08;;;;;;;;;;6254851;28;20022;-75
2022/01/23 17:05:33;;;;;;;67.88;28.88;;;;;;;;;;6238108;28;20098;-75
2022/01/23 17:08:35;;;;;;;69.43;28.93;;;;;;;;;;6236205;28;20052;-74
2022/01/23 17:11:35;;;;;;;50.88;26.90;;;;;;;;;;6263850;28;20315;-75
2022/01/23 17:14:35;;;;;;;57.35;28.35;;;;;;;;;;6262305;28;20029;-74
2022/01/23 17:17:35;;;;;;;65.18;29.27;;;;;;;;;;6265472;28;20025;-74
2022/01/23 17:20:36;;;;;;;59.55;26.15;;;;;;;;;;6245793;28;20433;-74
2022/01/23 17:23:36;;;;;;;62.30;30.08;;;;;;;;;;6264673;28;20071;-74
2022/01/23 17:26:36;;;;;;;48.55;23.20;;;;;;;;;;6259746;28;20095;-74
2022/01/23 17:29:37;;;;;;;72.57;32.95;;;;;;;;;;6233715;28;20420;-75
2022/01/23 17:32:38;;;;;;;69.88;31.70;;;;;;;;;;6226314;28;20037;-75
2022/01/23 17:35:38;;;;;;;69.53;30.52;;;;;;;;;;6235760;28;20025;-74
2022/01/23 17:38:40;;;;;;;84.95;38.22;;;;;;;;;;6239513;28;20112;-75
2022/01/23 17:41:40;;;;;;;83.75;36.58;;;;;;;;;;6225096;28;20133;-74
2022/01/23 17:44:47;;;;;;;103.18;47.08;;;;;;;;;;6235711;28;20021;-74
2022/01/23 17:50:50;;;;;;;106.50;44.70;;;;;;;;;;6238847;28;20083;-74
2022/01/23 17:53:53;;;;;;;114.53;57.60;;;;;;;;;;6242447;28;20021;-74
2022/01/23 17:56:53;;;;;;;;;;;;;;;;;;6228157;28;20028;-74
2022/01/23 17:59:53;;;;;;;92.47;46.50;;;;;;;;;;6237327;28;19905;-75
2022/01/23 18:02:54;;;;;;;89.00;40.50;;;;;;;;;;6233578;28;20037;-74
2022/01/23 18:05:59;;;;;;;82.45;39.50;;;;;;;;;;6220788;28;20029;-75
2022/01/23 18:09:00;;;;;;;92.20;42.88;;;;;;;;;;6218212;28;20390;-75
2022/01/23 18:12:00;;;;;;;118.80;51.83;;;;;;;;;;6215504;28;20051;-75
2022/01/23 18:15:01;;;;;;;123.00;53.78;;;;;;;;;;6224884;28;20116;-75
2022/01/23 18:18:01;;;;;;;172.00;66.90;;;;;;;;;;6217884;28;20026;-75
2022/01/23 18:21:02;;;;;;;130.82;54.08;;;;;;;;;;6217683;28;20450;-75
2022/01/23 18:24:07;;;;;;;168.68;69.18;;;;;;;;;;6217230;28;20022;-75
2022/01/23 18:27:09;;;;;;;229.70;86.28;;;;;;;;;;6217526;28;20531;-75
2022/01/23 18:30:10;;;;;;;210.32;83.80;;;;;;;;;;6253801;28;20053;-75
2022/01/23 18:33:10;;;;;;;349.05;125.57;;;;;;;;;;6267887;28;20519;-75
2022/01/23 18:36:10;;;;;;;249.02;101.53;;;;;;;;;;6266778;28;20013;-75
2022/01/23 18:39:11;;;;;;;197.90;85.57;;;;;;;;;;6268122;28;20021;-75
2022/01/23 18:42:11;;;;;;;206.27;86.68;;;;;;;;;;6268210;28;20017;-75
2022/01/23 18:45:12;;;;;;;278.05;107.75;;;;;;;;;;6268505;28;20009;-75
2022/01/23 18:48:12;;;;;;;271.83;119.45;;;;;;;;;;6249679;28;20025;-75
2022/01/23 18:51:12;;;;;;;184.65;68.57;;;;;;;;;;6267183;28;20017;-75
2022/01/23 18:57:33;;;;;;;187.80;78.90;;;;;;;;;;6251683;28;20477;-75
2022/01/23 19:00:37;;;;;;;253.20;103.43;;;;;;;;;;6233219;28;20481;-75
2022/01/23 19:03:44;;;;;;;171.10;73.07;;;;;;;;;;6260533;28;20270;-75
2022/01/23 19:06:52;;;;;;;182.57;75.00;;;;;;;;;;6257259;28;20025;-75
2022/01/23 19:09:55;;;;;;;173.40;75.25;;;;;;;;;;6250870;28;20033;-75
2022/01/23 19:12:55;;;;;;;185.95;77.90;;;;;;;;;;6249844;28;20052;-75
2022/01/23 19:15:55;;;;;;;124.97;57.03;;;;;;;;;;6264610;28;20029;-75
2022/01/23 19:18:56;;;;;;;127.40;59.60;;;;;;;;;;6251680;28;20528;-75
2022/01/23 19:21:56;;;;;;;141.27;60.60;;;;;;;;;;6243360;28;20544;-75
2022/01/23 19:24:57;;;;;;;131.20;55.80;;;;;;;;;;6236549;28;20056;-75
2022/01/23 19:28:01;;;;;;;136.45;62.03;;;;;;;;;;6242487;28;20053;-75
2022/01/23 19:31:02;;;;;;;141.60;56.63;;;;;;;;;;6249887;28;20456;-75
2022/01/23 19:34:03;;;;;;;122.22;54.63;;;;;;;;;;6250730;28;20065;-75
2022/01/23 19:37:04;;;;;;;120.50;52.83;;;;;;;;;;6261174;28;20047;-75
2022/01/23 19:40:05;;;;;;;116.53;56.83;;;;;;;;;;6266996;28;20676;-75
2022/01/23 19:46:28;;;;;;;60.92;27.77;;;;;;;;;;6267096;28;20497;-75
2022/01/23 19:49:36;;;;;;;80.28;34.45;;;;;;;;;;6249015;28;20120;-75
2022/01/23 19:52:36;;;;;;;107.60;47.97;;;;;;;;;;6266599;28;20393;-75
2022/01/23 19:55:37;;;;;;;130.18;63.65;;;;;;;;;;6249106;28;20025;-75
2022/01/23 19:58:37;;;;;;;159.63;76.72;;;;;;;;;;6266709;28;20039;-75
2022/01/23 20:01:37;;;;;;;157.38;69.00;;;;;;;;;;6247526;28;20031;-75
2022/01/23 20:04:38;;;;;;;143.70;65.20;;;;;;;;;;6240046;28;20756;-75
2022/01/23 20:07:38;;;;;;;163.00;65.70;;;;;;;;;;6253383;28;20507;-75
2022/01/23 20:13:39;;;;;;;136.25;56.78;;;;;;;;;;6264879;28;20392;-75
2022/01/23 20:24:09;;;;;;;75.50;34.20;;;;;;;;;;6264061;28;20032;-75
2022/01/23 20:27:09;;;;;;;79.73;32.20;;;;;;;;;;6250684;28;20034;-75
2022/01/23 20:30:11;;;;;;;88.22;42.58;;;;;;;;;;6251194;28;20596;-75
2022/01/23 20:33:11;;;;;;;108.47;51.33;;;;;;;;;;6232410;28;20074;-75
2022/01/23 20:36:11;;;;;;;143.50;59.00;;;;;;;;;;6251762;28;20472;-75
2022/01/23 20:39:11;;;;;;;113.45;47.28;;;;;;;;;;6269512;28;20319;-74
2022/01/23 20:42:12;;;;;;;128.27;51.50;;;;;;;;;;6246713;28;20017;-75
2022/01/23 20:45:12;;;;;;;131.38;64.10;;;;;;;;;;6245684;28;20259;-75
2022/01/23 20:48:12;;;;;;;144.18;64.30;;;;;;;;;;6233081;28;20029;-74
2022/01/23 20:51:16;;;;;;;91.70;42.72;;;;;;;;;;6249638;28;20018;-75
2022/01/23 20:54:16;;;;;;;132.77;58.90;;;;;;;;;;6243454;28;20056;-74
2022/01/23 20:57:17;;;;;;;134.93;64.88;;;;;;;;;;6257029;28;20017;-74
2022/01/23 21:00:17;;;;;;;163.35;73.30;;;;;;;;;;6250909;28;20016;-74
2022/01/23 21:03:17;;;;;;;162.98;69.30;;;;;;;;;;6242225;28;20017;-74
2022/01/23 21:06:18;;;;;;;147.48;62.95;;;;;;;;;;6270587;28;20443;-75
2022/01/23 21:09:19;;;;;;;135.98;62.15;;;;;;;;;;6251956;28;20024;-74
2022/01/23 21:12:19;;;;;;;109.23;45.03;;;;;;;;;;6252255;28;20587;-74
2022/01/23 21:15:47;;;;;;;146.60;60.75;;;;;;;;;;6248214;28;20298;-74
2022/01/23 21:41:17;;;;;;;143.20;64.63;;;;;;;;;;6250293;28;20026;-75
2022/01/23 21:44:17;;;;;;;93.57;45.63;;;;;;;;;;6234630;28;20028;-75
2022/01/23 21:47:18;;;;;;;105.17;47.13;;;;;;;;;;6249062;28;20059;-77
2022/01/23 21:50:18;;;;;;;104.78;43.58;;;;;;;;;;6251652;28;20069;-75
2022/01/23 21:53:19;;;;;;;116.83;51.83;;;;;;;;;;6266338;28;20147;-75